Time;durP1;ratioP1;P1;durP2;ratioP2;P2;SDS_P1;SDS_P2;PMS_P1;PMS_P2;Temp;Humidity;BMP_temperature;BMP_pressure;BME280_temperature;BME280_humidity;BME280_pressure;Samples;Min_cycle;Max_cycle;Signal;HPM_P1;HPM_P2
2023/03/01 00:00:39;;;;;;;;;;;;;;;-1.55;72.89;101925.94;4955266;29;19930;-66
2023/03/01 00:03:45;;;;;;;;;;;;;;;-1.58;73.09;101926.75;4955260;29;20346;-66
2023/03/01 00:06:48;;;;;;;;;;;;;;;-1.70;73.15;101927.34;4955186;29;19942;-66
2023/03/01 00:09:51;;;;;;;;;;;;;;;-1.64;73.22;101932.63;4955042;29;19964;-66
2023/03/01 00:12:56;;;;;;;;;;;;;;;-1.68;73.05;101925.69;4955394;29;19968;-67
2023/03/01 00:16:01;;;;;;;;;;;;;;;-1.72;73.31;101925.63;4954971;29;19969;-67
2023/03/01 00:19:05;;;;;;;;;;;;;;;-1.71;73.25;101924.78;4943392;29;19953;-66
2023/03/01 00:22:08;;;;;;;;;;;;;;;-1.71;74.13;101920.50;4954875;29;20457;-66
2023/03/01 00:25:11;;;;;;;;;;;;;;;-1.77;74.06;101925.50;4954774;29;20409;-66
2023/03/01 00:28:14;;;;;;;;;;;;;;;-1.78;74.01;101928.91;4955027;29;19973;-66
2023/03/01 00:31:19;;;;;;;;;;;;;;;-1.82;73.96;101927.09;4954859;29;20311;-67
2023/03/01 00:34:22;;;;;;;;;;;;;;;-1.87;74.16;101923.59;4942788;29;19926;-67
2023/03/01 00:37:25;;;;;;;;;;;;;;;-1.85;74.06;101914.25;4942796;29;20338;-67
2023/03/01 00:40:29;;;;;;;;;;;;;;;-1.78;73.80;101916.09;4954651;29;19930;-67
2023/03/01 00:43:36;;;;;;;;;;;;;;;-1.74;73.70;101917.88;4954499;29;20451;-66
2023/03/01 00:46:39;;;;;;;;;;;;;;;-1.84;73.81;101908.28;4942256;29;19926;-66
2023/03/01 00:49:43;;;;;;;;;;;;;;;-1.88;73.80;101909.91;4954578;29;19981;-67
2023/03/01 00:52:46;;;;;;;;;;;;;;;-1.86;73.74;101907.38;4954087;29;19988;-66
2023/03/01 00:55:49;;;;;;;;;;;;;;;-1.89;74.04;101909.88;4954527;29;20359;-66
2023/03/01 00:58:52;;;;;;;;;;;;;;;-1.98;74.00;101907.09;4943046;29;19973;-67
2023/03/01 01:01:55;;;;;;;;;;;;;;;-2.13;74.91;101903.41;4954558;29;20401;-66
2023/03/01 01:04:59;;;;;;;;;;;;;;;-2.11;74.90;101899.19;4954393;29;19925;-67
2023/03/01 01:08:02;;;;;;;;;;;;;;;-2.15;75.25;101893.94;4942399;29;19972;-66
2023/03/01 01:11:31;;;;;;;;;;;;;;;-2.01;74.94;101883.97;4954563;29;19929;-67
2023/03/01 01:23:12;;;;;;;;;;;;;;;;;;;;;
2023/03/01 01:27:13;;;;;;;;;;;;;;;-2.09;73.96;101885.53;4895258;29;19942;-66
2023/03/01 01:35:32;;;;;;;;;;;;;;;-2.04;74.51;101873.66;4954447;29;20397;-67
2023/03/01 01:38:36;;;;;;;;;;;;;;;-2.07;74.11;101873.59;4954493;29;20309;-66
2023/03/01 01:41:41;;;;;;;;;;;;;;;-2.08;74.72;101869.31;4942077;28;19925;-66
2023/03/01 01:44:45;;;;;;;;;;;;;;;-2.14;74.37;101868.34;4942028;29;20383;-66
2023/03/01 01:47:56;;;;;;;;;;;;;;;-2.16;74.88;101874.28;4954160;29;20009;-66
2023/03/01 01:51:27;;;;;;;;;;;;;;;-2.22;74.98;101871.59;4953965;29;20338;-67
2023/03/01 01:54:39;;;;;;;;;;;;;;;-2.22;74.98;101864.75;4942449;29;20067;-66
2023/03/01 01:57:45;;;;;;;;;;;;;;;-2.24;74.84;101861.28;4953959;29;20069;-66
2023/03/01 02:00:48;;;;;;;;;;;;;;;-2.21;74.97;101863.91;4953920;29;20369;-67
2023/03/01 02:03:51;;;;;;;;;;;;;;;-2.22;75.06;101872.44;4942047;28;20438;-66
2023/03/01 02:06:59;;;;;;;;;;;;;;;-2.27;74.71;101861.22;4944914;29;19981;-66
2023/03/01 02:10:03;;;;;;;;;;;;;;;-2.22;75.22;101857.06;4957103;29;19929;-66
2023/03/01 02:13:06;;;;;;;;;;;;;;;-2.20;74.93;101867.34;4957262;29;20031;-66
2023/03/01 02:16:10;;;;;;;;;;;;;;;-2.21;75.10;101870.75;4957293;29;19927;-66
2023/03/01 02:19:18;;;;;;;;;;;;;;;-2.28;75.24;101869.75;4957258;29;20057;-66
2023/03/01 02:22:24;;;;;;;;;;;;;;;-2.23;75.71;101865.59;4956765;29;19930;-67
2023/03/01 02:25:35;;;;;;;;;;;;;;;-2.21;74.91;101857.94;4945246;29;20335;-67
2023/03/01 02:28:40;;;;;;;;;;;;;;;-2.29;75.33;101857.78;4956524;29;20029;-67
2023/03/01 02:31:43;;;;;;;;;;;;;;;-2.34;75.51;101849.97;4956945;29;19933;-67
2023/03/01 02:34:47;;;;;;;;;;;;;;;-2.26;75.04;101845.03;4956703;29;20374;-67
2023/03/01 02:37:51;;;;;;;;;;;;;;;-2.30;75.08;101844.91;4956727;29;19926;-67
2023/03/01 02:40:56;;;;;;;;;;;;;;;-2.34;75.53;101836.31;4943567;28;19970;-68
2023/03/01 02:44:00;;;;;;;;;;;;;;;-2.36;75.35;101832.88;4956454;29;19933;-68
2023/03/01 02:47:04;;;;;;;;;;;;;;;-2.43;75.92;101833.53;4944711;29;20282;-68
2023/03/01 02:50:21;;;;;;;;;;;;;;;-2.54;76.19;101829.88;4944490;29;19999;-68
2023/03/01 02:53:34;;;;;;;;;;;;;;;-2.46;76.12;101823.22;4956396;29;20282;-68
2023/03/01 02:56:37;;;;;;;;;;;;;;;-2.48;75.98;101822.34;4956372;29;19925;-68
2023/03/01 02:59:42;;;;;;;;;;;;;;;-2.49;76.49;101815.47;4956402;29;19926;-68
2023/03/01 03:02:50;;;;;;;;;;;;;;;-2.46;75.94;101807.84;4944370;29;19925;-68
2023/03/01 03:05:55;;;;;;;;;;;;;;;-2.48;75.70;101814.66;4944306;29;19970;-68
2023/03/01 03:08:59;;;;;;;;;;;;;;;-2.46;75.83;101813.84;4944348;29;19965;-68
2023/03/01 03:12:02;;;;;;;;;;;;;;;-2.41;75.60;101812.25;4944152;29;20409;-68
2023/03/01 03:15:08;;;;;;;;;;;;;;;-2.43;75.55;101805.38;4944487;29;19940;-68
2023/03/01 03:18:13;;;;;;;;;;;;;;;-2.38;75.79;101803.78;4944076;29;20017;-68
2023/03/01 03:21:16;;;;;;;;;;;;;;;-2.45;75.82;101799.38;4943926;29;19926;-68
2023/03/01 03:24:20;;;;;;;;;;;;;;;-2.46;75.65;101800.16;4955853;29;20023;-68
2023/03/01 03:27:24;;;;;;;;;;;;;;;-2.43;75.83;101797.69;4954992;29;20290;-68
2023/03/01 03:30:29;;;;;;;;;;;;;;;-2.50;75.75;101803.50;4955791;29;19930;-68
2023/03/01 03:33:32;;;;;;;;;;;;;;;-2.50;76.13;101796.69;4955848;29;19925;-68
2023/03/01 03:36:36;;;;;;;;;;;;;;;-2.71;76.47;101799.66;4955704;29;19926;-68
2023/03/01 03:39:38;;;;;;;;;;;;;;;-2.61;76.56;101788.78;4955551;29;20377;-68
2023/03/01 03:42:42;;;;;;;;;;;;;;;-2.58;75.82;101772.63;4955417;28;19945;-68
2023/03/01 03:45:46;;;;;;;;;;;;;;;-2.65;75.92;101758.81;4955443;29;20351;-68
2023/03/01 03:48:49;;;;;;;;;;;;;;;-2.62;75.71;101755.44;4955457;29;20445;-68
2023/03/01 03:51:52;;;;;;;;;;;;;;;-2.62;75.79;101756.34;4955368;29;19932;-68
2023/03/01 03:54:55;;;;;;;;;;;;;;;-2.64;76.00;101762.25;4955626;29;20387;-68
2023/03/01 03:58:01;;;;;;;;;;;;;;;-2.78;76.46;101751.69;4955243;29;20306;-68
2023/03/01 04:01:06;;;;;;;;;;;;;;;-2.72;76.41;101754.38;4955314;29;19973;-68
2023/03/01 04:04:09;;;;;;;;;;;;;;;-2.75;76.41;101751.75;4943317;29;19965;-68
2023/03/01 04:07:11;;;;;;;;;;;;;;;-2.66;76.39;101756.22;4955180;29;19926;-68
2023/03/01 04:10:15;;;;;;;;;;;;;;;-2.73;76.51;101756.94;4942977;29;19973;-68
2023/03/01 04:13:20;;;;;;;;;;;;;;;-2.69;76.26;101759.56;4955401;29;19969;-68
2023/03/01 04:16:23;;;;;;;;;;;;;;;-2.75;76.13;101761.13;4955078;29;19991;-68
2023/03/01 04:19:26;;;;;;;;;;;;;;;-2.67;76.18;101762.19;4955019;29;20290;-68
2023/03/01 04:22:31;;;;;;;;;;;;;;;-2.68;76.03;101761.31;4954758;29;19925;-68
2023/03/01 04:25:34;;;;;;;;;;;;;;;-2.69;75.77;101757.00;4953434;29;19965;-68
2023/03/01 04:28:44;;;;;;;;;;;;;;;-2.74;75.88;101761.19;4954423;28;19965;-65
2023/03/01 04:31:48;;;;;;;;;;;;;;;-2.76;76.52;101765.41;4954656;29;19945;-65
2023/03/01 04:34:51;;;;;;;;;;;;;;;-2.79;76.19;101757.66;4954559;29;19925;-66
2023/03/01 04:37:54;;;;;;;;;;;;;;;-2.78;76.00;101755.94;4954502;29;19973;-66
2023/03/01 04:40:58;;;;;;;;;;;;;;;-2.78;75.70;101759.38;4954867;28;20059;-66
2023/03/01 04:44:00;;;;;;;;;;;;;;;-2.81;75.87;101759.28;4954516;29;19946;-65
2023/03/01 04:47:04;;;;;;;;;;;;;;;-2.91;75.97;101765.03;4954528;29;20026;-65
2023/03/01 04:50:07;;;;;;;;;;;;;;;-2.89;75.80;101760.84;4954671;29;19977;-66
2023/03/01 04:53:10;;;;;;;;;;;;;;;-2.82;75.68;101767.81;4954421;29;20286;-65
2023/03/01 04:56:14;;;;;;;;;;;;;;;-2.82;75.80;101767.81;4954403;29;19925;-65
2023/03/01 04:59:17;;;;;;;;;;;;;;;-2.92;75.82;101771.00;4954292;29;20020;-66
2023/03/01 05:02:21;;;;;;;;;;;;;;;-2.95;76.10;101774.34;4954714;29;20035;-66
2023/03/01 05:05:26;;;;;;;;;;;;;;;-2.94;76.50;101767.53;4954393;29;19974;-65
2023/03/01 05:08:29;;;;;;;;;;;;;;;-3.05;76.66;101764.75;4954214;29;19966;-65
2023/03/01 05:11:35;;;;;;;;;;;;;;;-3.02;76.47;101759.69;4942201;29;20338;-66
2023/03/01 05:14:39;;;;;;;;;;;;;;;-2.97;76.11;101764.91;4952923;29;19977;-65
2023/03/01 05:17:43;;;;;;;;;;;;;;;-3.00;76.43;101762.28;4953816;29;20053;-67
2023/03/01 05:20:47;;;;;;;;;;;;;;;-3.00;75.81;101752.91;4952269;29;19926;-67
2023/03/01 05:23:50;;;;;;;;;;;;;;;-3.06;75.87;101753.66;4951821;29;19977;-66
2023/03/01 05:26:53;;;;;;;;;;;;;;;-3.07;76.58;101751.91;4953345;29;19972;-65
2023/03/01 05:29:56;;;;;;;;;;;;;;;-3.12;76.35;101761.19;4953372;29;19924;-67
2023/03/01 05:33:00;;;;;;;;;;;;;;;-3.12;76.45;101753.50;4953826;29;20029;-66
2023/03/01 05:36:03;;;;;;;;;;;;;;;-3.07;75.79;101758.72;4953775;29;19973;-66
2023/03/01 05:39:06;;;;;;;;;;;;;;;-3.06;75.96;101755.34;4954480;28;20294;-66
2023/03/01 05:42:10;;;;;;;;;;;;;;;-3.04;75.89;101748.53;4957975;28;19981;-66
2023/03/01 05:45:15;;;;;;;;;;;;;;;-3.01;75.84;101751.19;4957609;29;19977;-65
2023/03/01 05:48:19;;;;;;;;;;;;;;;-3.08;75.79;101747.63;4944506;29;19989;-65
2023/03/01 05:51:22;;;;;;;;;;;;;;;-3.12;75.90;101748.38;4956467;29;20294;-65
2023/03/01 05:54:25;;;;;;;;;;;;;;;-3.20;76.64;101751.59;4957051;29;19926;-65
2023/03/01 05:57:28;;;;;;;;;;;;;;;-3.20;76.47;101749.88;4957549;29;20009;-65
2023/03/01 06:00:32;;;;;;;;;;;;;;;-3.15;76.31;101742.34;4957398;29;20331;-66
2023/03/01 06:03:35;;;;;;;;;;;;;;;-3.16;75.87;101736.34;4945335;29;19973;-66
2023/03/01 06:06:39;;;;;;;;;;;;;;;-3.17;75.63;101731.19;4957578;29;19938;-65
2023/03/01 06:09:42;;;;;;;;;;;;;;;-3.23;75.64;101739.56;4957123;29;19925;-65
2023/03/01 06:12:45;;;;;;;;;;;;;;;-3.27;75.49;101742.91;4957299;29;19930;-66
2023/03/01 06:15:48;;;;;;;;;;;;;;;-3.27;75.75;101738.66;4957373;29;19926;-66
2023/03/01 06:18:52;;;;;;;;;;;;;;;-3.30;76.26;101742.81;4956962;29;19926;-66
2023/03/01 06:21:55;;;;;;;;;;;;;;;-3.34;76.70;101746.16;4955823;29;19925;-67
2023/03/01 06:24:58;;;;;;;;;;;;;;;-3.36;77.52;101737.56;4956948;29;19929;-67
2023/03/01 06:28:01;;;;;;;;;;;;;;;-3.27;76.85;101735.22;4944984;29;20036;-67
2023/03/01 06:31:08;;;;;;;;;;;;;;;-3.25;76.72;101741.25;4956688;29;19929;-66
2023/03/01 06:34:13;;;;;;;;;;;;;;;-3.30;76.77;101745.38;4956626;29;20138;-66
2023/03/01 06:37:16;;;;;;;;;;;;;;;-3.28;76.21;101730.94;4956497;29;19945;-67
2023/03/01 06:40:19;;;;;;;;;;;;;;;-3.25;75.82;101736.13;4956526;29;19925;-66
2023/03/01 06:43:23;;;;;;;;;;;;;;;-3.30;76.84;101742.81;4956397;29;20017;-66
2023/03/01 06:46:26;;;;;;;;;;;;;;;-3.35;76.93;101744.41;4956524;29;19925;-67
2023/03/01 06:49:30;;;;;;;;;;;;;;;-3.19;76.44;101738.84;4956557;29;20022;-66
2023/03/01 06:52:33;;;;;;;;;;;;;;;-3.19;75.91;101738.84;4955977;28;19933;-66
2023/03/01 06:55:37;;;;;;;;;;;;;;;-3.16;76.61;101736.34;4956410;29;19925;-66
2023/03/01 06:58:40;;;;;;;;;;;;;;;-3.23;77.17;101737.03;4956363;29;19925;-67
2023/03/01 07:01:43;;;;;;;;;;;;;;;-3.10;77.01;101735.63;4956518;29;20009;-68
2023/03/01 07:04:48;;;;;;;;;;;;;;;-2.99;76.34;101733.31;4956089;29;19940;-67
2023/03/01 07:07:54;;;;;;;;;;;;;;;-2.99;76.50;101733.31;4956451;29;19925;-67
2023/03/01 07:10:58;;;;;;;;;;;;;;;-2.94;76.26;101726.59;4956059;29;19984;-67
2023/03/01 07:14:01;;;;;;;;;;;;;;;-2.83;76.54;101741.34;4955802;29;19965;-67
2023/03/01 07:17:05;;;;;;;;;;;;;;;-2.78;76.49;101740.59;4955549;29;19973;-67
2023/03/01 07:20:08;;;;;;;;;;;;;;;-2.79;77.08;101741.44;4955694;29;19924;-67
2023/03/01 07:23:11;;;;;;;;;;;;;;;-2.74;77.07;101735.59;4954821;29;19926;-67
2023/03/01 07:26:14;;;;;;;;;;;;;;;-2.64;77.04;101721.28;4954283;29;19927;-66
2023/03/01 07:29:20;;;;;;;;;;;;;;;-2.49;76.07;101719.03;4955845;29;19926;-67
2023/03/01 07:32:23;;;;;;;;;;;;;;;-2.42;75.76;101713.19;4955814;29;20012;-66
2023/03/01 07:35:27;;;;;;;;;;;;;;;-2.28;75.44;101712.59;4955974;29;19925;-68
2023/03/01 07:38:31;;;;;;;;;;;;;;;-2.05;75.57;101718.16;4955622;29;20024;-66
2023/03/01 07:41:33;;;;;;;;;;;;;;;-1.95;75.22;101704.66;4955562;28;20290;-66
2023/03/01 07:44:36;;;;;;;;;;;;;;;-1.78;75.20;101715.25;4953926;29;19929;-67
2023/03/01 07:47:40;;;;;;;;;;;;;;;-1.80;75.76;101716.91;4955403;29;20013;-67
2023/03/01 07:50:46;;;;;;;;;;;;;;;-1.80;75.76;101716.91;4955204;29;19929;-67
2023/03/01 07:53:49;;;;;;;;;;;;;;;-1.61;75.55;101711.25;4954722;29;20390;-67
2023/03/01 07:56:54;;;;;;;;;;;;;;;-1.45;75.48;101707.22;4954499;29;19926;-67
2023/03/01 07:59:57;;;;;;;;;;;;;;;-1.33;75.39;101704.00;4943191;29;20286;-68
2023/03/01 08:03:03;;;;;;;;;;;;;;;-1.28;74.93;101698.09;4955369;28;19966;-67
2023/03/01 08:06:09;;;;;;;;;;;;;;;-1.27;74.95;101696.41;4943349;29;19929;-66
2023/03/01 08:09:12;;;;;;;;;;;;;;;-1.58;76.70;101695.91;4955125;29;19941;-67
2023/03/01 08:12:16;;;;;;;;;;;;;;;-1.55;76.86;101698.53;4955084;29;19977;-67
2023/03/01 08:15:19;;;;;;;;;;;;;;;-1.20;75.58;101693.94;4955030;29;19965;-67
2023/03/01 08:18:24;;;;;;;;;;;;;;;-0.71;74.62;101689.47;4955106;29;20292;-67
2023/03/01 08:21:27;;;;;;;;;;;;;;;-0.48;73.63;101686.31;4954989;29;19941;-67
2023/03/01 08:24:30;;;;;;;;;;;;;;;-0.31;72.81;101689.94;4955032;29;19973;-67
2023/03/01 08:27:33;;;;;;;;;;;;;;;-0.31;71.83;101689.94;4955425;29;19989;-67
2023/03/01 08:30:36;;;;;;;;;;;;;;;-0.16;72.13;101689.25;4954944;29;19929;-67
2023/03/01 08:33:39;;;;;;;;;;;;;;;0.30;70.92;101693.97;4955266;29;19941;-67
2023/03/01 08:36:45;;;;;;;;;;;;;;;0.46;71.21;101693.25;4954126;29;20129;-68
2023/03/01 08:39:49;;;;;;;;;;;;;;;0.64;70.56;101690.81;4955267;29;19930;-68
2023/03/01 08:42:52;;;;;;;;;;;;;;;0.73;69.63;101690.00;4954693;28;19965;-65
2023/03/01 08:45:55;;;;;;;;;;;;;;;0.48;68.23;101689.00;4954816;29;20385;-66
2023/03/01 08:48:59;;;;;;;;;;;;;;;0.61;68.53;101683.09;4954806;29;19984;-66
2023/03/01 08:52:02;;;;;;;;;;;;;;;0.67;68.96;101682.25;4954616;29;19970;-66
2023/03/01 08:55:05;;;;;;;;;;;;;;;0.66;68.82;101675.38;4954830;29;19925;-66
2023/03/01 08:58:09;;;;;;;;;;;;;;;0.78;68.46;101664.31;4954092;29;20460;-66
2023/03/01 09:01:14;;;;;;;;;;;;;;;0.49;68.38;101659.81;4954548;29;19941;-66
2023/03/01 09:04:17;;;;;;;;;;;;;;;0.67;68.49;101661.66;4954067;29;19930;-66
2023/03/01 09:07:21;;;;;;;;;;;;;;;0.64;68.07;101657.38;4942694;29;19967;-66
2023/03/01 09:10:25;;;;;;;;;;;;;;;0.67;67.10;101657.38;4954522;29;20378;-67
2023/03/01 09:13:30;;;;;;;;;;;;;;;0.88;67.11;101640.34;4954522;28;20300;-66
2023/03/01 09:16:35;;;;;;;;;;;;;;;0.85;66.58;101642.88;4958404;29;19972;-66
2023/03/01 09:19:40;;;;;;;;;;;;;;;0.91;66.92;101638.63;4946568;29;20425;-67
2023/03/01 09:22:44;;;;;;;;;;;;;;;1.02;66.76;101641.28;4946390;29;19925;-67
2023/03/01 09:25:47;;;;;;;;;;;;;;;1.04;65.16;101636.97;4958354;29;19942;-67
2023/03/01 09:28:51;;;;;;;;;;;;;;;1.19;66.38;101641.34;4946374;29;20346;-67
2023/03/01 09:31:54;;;;;;;;;;;;;;;1.32;66.39;101627.66;4958096;29;20386;-67
2023/03/01 09:35:04;;;;;;;;;;;;;;;1.41;65.82;101621.69;4958072;29;19934;-67
2023/03/01 09:38:07;;;;;;;;;;;;;;;1.46;65.16;101627.69;4957853;29;20393;-67
2023/03/01 09:41:31;;;;;;;;;;;;;;;1.42;64.83;101612.22;4954971;28;20029;-67
2023/03/01 09:44:47;;;;;;;;;;;;;;;1.57;65.07;101618.28;4957491;29;19930;-67
2023/03/01 09:47:50;;;;;;;;;;;;;;;1.67;63.88;101624.31;4945952;29;20385;-67
2023/03/01 09:50:56;;;;;;;;;;;;;;;1.72;63.52;101608.84;4957935;29;19945;-67
2023/03/01 09:54:01;;;;;;;;;;;;;;;1.93;64.17;101616.59;4957535;29;20414;-67
2023/03/01 09:57:23;;;;;;;;;;;;;;;1.90;63.53;101608.88;4958016;29;20386;-67
2023/03/01 10:00:34;;;;;;;;;;;;;;;2.10;64.31;101604.56;4957623;29;19942;-67
2023/03/01 10:03:42;;;;;;;;;;;;;;;2.15;62.92;101607.16;4957705;29;20001;-67
2023/03/01 10:06:52;;;;;;;;;;;;;;;2.28;62.30;101605.44;4958011;29;19929;-67
2023/03/01 10:09:55;;;;;;;;;;;;;;;2.39;62.83;101600.25;4957602;29;19966;-67
2023/03/01 10:13:03;;;;;;;;;;;;;;;2.43;61.77;101595.09;4957604;29;20453;-67
2023/03/01 10:16:25;;;;;;;;;;;;;;;2.55;60.63;101579.59;4957464;29;19965;-67
2023/03/01 10:19:31;;;;;;;;;;;;;;;2.59;60.96;101571.84;4957683;29;19945;-67
2023/03/01 10:22:36;;;;;;;;;;;;;;;2.68;60.28;101561.44;4957212;29;19945;-67
2023/03/01 10:25:54;;;;;;;;;;;;;;;2.75;60.11;101563.16;4956328;28;19925;-67
2023/03/01 10:29:02;;;;;;;;;;;;;;;2.79;59.36;101557.97;4957280;29;19934;-70
2023/03/01 10:32:29;;;;;;;;;;;;;;;2.85;59.41;101544.19;4956986;29;20342;-68
2023/03/01 10:35:33;;;;;;;;;;;;;;;2.91;58.53;101546.75;4957302;29;20446;-68
2023/03/01 10:38:53;;;;;;;;;;;;;;;2.90;57.58;101554.50;4957141;29;19993;-68
2023/03/01 10:42:05;;;;;;;;;;;;;;;3.09;58.18;101552.69;4956787;28;19974;-67
2023/03/01 10:45:34;;;;;;;;;;;;;;;3.18;57.89;101544.88;4956725;29;20103;-67
2023/03/01 10:48:38;;;;;;;;;;;;;;;3.14;57.30;101538.03;4957058;29;20006;-67
2023/03/01 10:51:42;;;;;;;;;;;;;;;3.22;57.09;101524.19;4955284;29;19929;-68
2023/03/01 10:55:11;;;;;;;;;;;;;;;3.25;57.22;101533.63;4954307;29;19924;-67
2023/03/01 10:58:20;;;;;;;;;;;;;;;3.34;56.89;101525.81;4941287;29;20004;-68
2023/03/01 11:01:35;;;;;;;;;;;;;;;3.40;55.85;101525.78;4956676;29;19965;-67
2023/03/01 11:04:38;;;;;;;;;;;;;;;3.54;56.21;101517.06;4956623;29;20385;-67
2023/03/01 11:07:53;;;;;;;;;;;;;;;3.66;55.77;101522.16;4956573;29;20024;-67
2023/03/01 11:11:05;;;;;;;;;;;;;;;3.66;55.21;101529.91;4956397;29;20297;-67
2023/03/01 11:14:22;;;;;;;;;;;;;;;3.75;55.56;101526.41;4956540;29;19929;-67
2023/03/01 11:17:29;;;;;;;;;;;;;;;3.73;54.55;101506.59;4956174;29;19925;-66
2023/03/01 11:20:34;;;;;;;;;;;;;;;3.88;54.84;101504.72;4956089;29;19925;-67
2023/03/01 11:23:39;;;;;;;;;;;;;;;3.96;54.45;101498.63;4956057;29;19925;-67
2023/03/01 11:26:45;;;;;;;;;;;;;;;4.01;54.49;101497.72;4956079;29;19926;-66
2023/03/01 11:29:52;;;;;;;;;;;;;;;4.06;54.03;101490.78;4956015;29;19942;-66
2023/03/01 11:33:08;;;;;;;;;;;;;;;4.17;54.73;101483.75;4955827;29;19929;-66
2023/03/01 11:36:20;;;;;;;;;;;;;;;4.28;53.37;101481.91;4955857;29;19988;-67
2023/03/01 11:39:41;;;;;;;;;;;;;;;4.31;52.51;101468.94;4955809;29;19925;-69
2023/03/01 11:42:47;;;;;;;;;;;;;;;4.40;52.64;101481.78;4943758;29;19950;-68
2023/03/01 11:45:56;;;;;;;;;;;;;;;4.48;52.38;101463.56;4955639;29;19929;-70
2023/03/01 11:49:02;;;;;;;;;;;;;;;4.58;52.62;101470.31;4955571;29;20456;-69
2023/03/01 11:52:08;;;;;;;;;;;;;;;4.68;52.75;101455.53;4955457;29;20402;-69
2023/03/01 11:55:30;;;;;;;;;;;;;;;4.69;51.29;101462.44;4955522;29;19974;-69
2023/03/01 11:58:54;;;;;;;;;;;;;;;4.76;50.61;101456.28;4955465;29;19929;-70
2023/03/01 12:02:05;;;;;;;;;;;;;;;4.81;51.11;101457.06;4955414;29;20353;-68
2023/03/01 12:05:31;;;;;;;;;;;;;;;4.79;49.75;101448.47;4955430;29;20012;-68
2023/03/01 12:08:48;;;;;;;;;;;;;;;4.99;50.05;101439.56;4943576;29;19958;-68
2023/03/01 12:12:18;;;;;;;;;;;;;;;5.15;50.00;101441.03;4955201;29;20025;-68
2023/03/01 12:15:42;;;;;;;;;;;;;;;5.20;47.97;101430.59;4938800;29;20437;-67
2023/03/01 12:18:49;;;;;;;;;;;;;;;5.27;48.22;101419.25;4955215;29;19929;-68
2023/03/01 12:22:11;;;;;;;;;;;;;;;5.45;48.49;101407.72;4954862;29;19973;-68
2023/03/01 12:25:26;;;;;;;;;;;;;;;5.64;48.14;101409.09;4943409;29;20281;-68
2023/03/01 12:28:48;;;;;;;;;;;;;;;5.85;48.21;101399.22;4955208;29;20310;-68
2023/03/01 12:32:04;;;;;;;;;;;;;;;6.05;47.44;101399.72;4954937;29;19929;-68
2023/03/01 12:35:21;;;;;;;;;;;;;;;6.18;47.99;101385.63;4955248;29;19926;-68
2023/03/01 12:38:26;;;;;;;;;;;;;;;6.44;46.94;101379.00;4954889;29;20442;-68
2023/03/01 12:41:30;;;;;;;;;;;;;;;6.36;44.94;101378.34;4954753;28;19925;-68
2023/03/01 12:44:33;;;;;;;;;;;;;;;6.52;45.93;101366.72;4954738;29;20294;-68
2023/03/01 12:47:46;;;;;;;;;;;;;;;6.52;46.41;101371.94;4955031;29;20385;-68
2023/03/01 12:50:51;;;;;;;;;;;;;;;6.31;45.10;101351.59;4954259;29;19930;-68
2023/03/01 12:53:55;;;;;;;;;;;;;;;6.67;45.23;101362.94;4954537;29;20342;-68
2023/03/01 12:57:05;;;;;;;;;;;;;;;6.78;45.17;101349.69;4954444;29;20408;-68
2023/03/01 13:00:24;;;;;;;;;;;;;;;6.80;44.51;101342.72;4954400;29;20437;-68
2023/03/01 13:03:26;;;;;;;;;;;;;;;6.85;44.08;101340.84;4954156;29;19925;-68
2023/03/01 13:06:37;;;;;;;;;;;;;;;6.91;44.20;101344.16;4954490;29;20393;-68
2023/03/01 13:09:49;;;;;;;;;;;;;;;7.01;43.84;101330.94;4954558;29;19925;-68
2023/03/01 13:13:00;;;;;;;;;;;;;;;7.38;44.24;101325.66;4954594;29;19928;-68
2023/03/01 13:16:22;;;;;;;;;;;;;;;7.40;42.97;101323.84;4954494;29;20024;-68
2023/03/01 13:19:29;;;;;;;;;;;;;;;7.72;42.12;101314.31;4954347;29;19985;-68
2023/03/01 13:22:33;;;;;;;;;;;;;;;7.62;41.54;101317.19;4954722;29;19925;-68
2023/03/01 13:25:58;;;;;;;;;;;;;;;7.75;41.49;101322.06;4943146;29;20323;-68
2023/03/01 13:29:02;;;;;;;;;;;;;;;7.81;40.76;101324.50;4954374;29;20004;-69
2023/03/01 13:32:18;;;;;;;;;;;;;;;8.23;41.97;101312.00;4954407;29;19930;-69
2023/03/01 13:35:42;;;;;;;;;;;;;;;8.26;40.56;101306.66;4942471;29;20429;-68
2023/03/01 13:38:55;;;;;;;;;;;;;;;8.34;41.33;101301.25;4954356;29;19942;-69
2023/03/01 13:41:59;;;;;;;;;;;;;;;8.30;40.14;101310.06;4954220;28;19961;-69
2023/03/01 13:45:15;;;;;;;;;;;;;;;8.24;40.30;101300.66;4954135;29;20003;-69
2023/03/01 13:48:26;;;;;;;;;;;;;;;8.29;40.27;101306.56;4954265;29;20444;-74
2023/03/01 13:51:30;;;;;;;;;;;;;;;8.11;40.16;101294.97;4954348;29;19977;-67
2023/03/01 13:54:35;;;;;;;;;;;;;;;8.16;40.77;101289.59;4954071;29;19925;-68
2023/03/01 13:57:41;;;;;;;;;;;;;;;8.22;40.86;101293.78;4954185;29;19964;-68
2023/03/01 14:00:44;;;;;;;;;;;;;;;8.11;39.63;101275.88;4955760;28;19969;-67
2023/03/01 14:03:48;;;;;;;;;;;;;;;8.28;40.50;101284.03;4957080;29;19925;-67
2023/03/01 14:06:52;;;;;;;;;;;;;;;8.16;40.66;101285.25;4957577;29;19968;-67
2023/03/01 14:10:05;;;;;;;;;;;;;;;8.11;39.76;101287.16;4957815;29;19925;-68
2023/03/01 14:13:37;;;;;;;;;;;;;;;8.33;40.07;101281.31;4946181;29;20394;-69
2023/03/01 14:17:06;;;;;;;;;;;;;;;8.43;39.52;101272.31;4957695;29;19925;-68
2023/03/01 14:21:09;;;;;;;;;;;;;;;8.34;39.24;101265.59;4956429;29;19929;-69
2023/03/01 14:24:50;;;;;;;;;;;;;;;8.41;39.07;101268.06;4952814;29;19925;-68
2023/03/01 14:28:22;;;;;;;;;;;;;;;8.32;38.81;101267.41;4957488;29;19925;-68
2023/03/01 14:31:39;;;;;;;;;;;;;;;8.51;38.54;101270.31;4945409;29;19993;-68
2023/03/01 14:34:52;;;;;;;;;;;;;;;8.45;37.84;101264.44;4956994;29;19973;-69
2023/03/01 14:38:04;;;;;;;;;;;;;;;8.70;38.56;101262.75;4956778;29;19925;-69
2023/03/01 14:41:19;;;;;;;;;;;;;;;8.59;38.25;101268.31;4956727;29;20061;-69
2023/03/01 14:44:37;;;;;;;;;;;;;;;8.70;39.12;101269.72;4948602;29;19978;-69
2023/03/01 14:48:12;;;;;;;;;;;;;;;8.76;39.36;101259.09;4956748;29;19930;-69
2023/03/01 14:52:09;;;;;;;;;;;;;;;8.91;39.16;101258.59;4956581;29;20066;-69
2023/03/01 14:55:41;;;;;;;;;;;;;;;9.03;39.03;101254.69;4945959;29;19951;-67
2023/03/01 14:59:07;;;;;;;;;;;;;;;9.66;39.42;101242.88;4955894;29;19926;-68
2023/03/01 15:02:17;;;;;;;;;;;;;;;9.64;37.08;101234.28;4956609;29;20259;-69
2023/03/01 15:05:34;;;;;;;;;;;;;;;10.74;35.54;101223.88;4956989;29;19925;-67
2023/03/01 15:08:42;;;;;;;;;;;;;;;11.03;33.21;101217.41;4956706;29;20310;-67
2023/03/01 15:21:09;;;;;;;;;;;;;;;9.95;36.06;101199.97;4878371;29;20297;-68
2023/03/01 15:24:33;;;;;;;;;;;;;;;9.03;37.23;101202.53;4933633;29;19925;-69
2023/03/01 15:27:45;;;;;;;;;;;;;;;8.56;37.56;101210.22;4955502;29;19944;-69
2023/03/01 15:31:00;;;;;;;;;;;;;;;8.10;40.09;101203.84;4933364;29;19958;-70
2023/03/01 15:34:21;;;;;;;;;;;;;;;7.77;40.37;101206.56;4955956;29;19966;-70
2023/03/01 15:37:38;;;;;;;;;;;;;;;7.31;40.58;101210.50;4956039;29;19925;-69
2023/03/01 15:40:49;;;;;;;;;;;;;;;7.44;41.10;101205.81;4955809;29;20292;-70
2023/03/01 15:43:56;;;;;;;;;;;;;;;7.29;41.33;101211.44;4955664;29;19929;-69
2023/03/01 15:47:22;;;;;;;;;;;;;;;7.33;40.67;101207.84;4955349;29;19926;-69
2023/03/01 15:50:33;;;;;;;;;;;;;;;7.14;41.41;101213.53;4954630;29;19925;-70
2023/03/01 15:53:37;;;;;;;;;;;;;;;7.21;41.51;101204.72;4955444;29;20523;-74
2023/03/01 15:56:43;;;;;;;;;;;;;;;7.18;41.15;101215.19;4954786;29;19977;-69
2023/03/01 15:59:47;;;;;;;;;;;;;;;6.91;41.04;101210.72;4955420;29;19974;-72
2023/03/01 16:02:50;;;;;;;;;;;;;;;6.98;42.03;101215.69;4955554;29;20005;-70
2023/03/01 16:05:56;;;;;;;;;;;;;;;6.92;42.39;101204.63;4955463;29;19925;-69
2023/03/01 16:09:04;;;;;;;;;;;;;;;6.89;42.67;101207.28;4943803;29;19941;-69
2023/03/01 16:12:13;;;;;;;;;;;;;;;6.82;41.74;101219.59;4955172;29;19980;-69
2023/03/01 16:15:19;;;;;;;;;;;;;;;6.63;41.07;101208.81;4954381;29;19925;-69
2023/03/01 16:18:22;;;;;;;;;;;;;;;6.57;41.87;101208.97;4947616;29;20001;-70
2023/03/01 16:21:26;;;;;;;;;;;;;;;6.51;42.29;101216.94;4939071;29;19924;-70
2023/03/01 16:24:29;;;;;;;;;;;;;;;6.46;41.57;101223.97;4950716;28;19948;-69
2023/03/01 16:27:32;;;;;;;;;;;;;;;6.37;41.56;101225.03;4949919;29;20054;-69
2023/03/01 16:30:36;;;;;;;;;;;;;;;6.38;41.49;101221.56;4951021;29;20294;-70
2023/03/01 16:33:39;;;;;;;;;;;;;;;6.36;41.26;101227.69;4939768;29;19929;-69
2023/03/01 16:36:45;;;;;;;;;;;;;;;6.33;41.97;101220.81;4951777;29;19989;-69